createdAt,value
2022-10-11T00:01:51.544Z,14.38
2022-10-11T00:04:19.415Z,14.00
2022-10-11T00:06:47.390Z,12.93
2022-10-11T00:09:16.146Z,13.00
2022-10-11T00:11:43.868Z,16.17
2022-10-11T00:14:11.145Z,13.55
2022-10-11T00:16:44.299Z,18.92
2022-10-11T00:19:12.617Z,16.70
2022-10-11T00:21:39.851Z,12.90
2022-10-11T00:24:07.613Z,15.00
2022-10-11T00:26:34.873Z,14.57
2022-10-11T00:29:02.055Z,13.18
2022-10-11T00:31:34.641Z,15.43
2022-10-11T00:34:02.993Z,12.73
2022-10-11T00:36:30.311Z,16.88
2022-10-11T00:38:58.885Z,16.13
2022-10-11T00:44:12.424Z,14.70
2022-10-11T00:46:43.288Z,13.90
2022-10-11T00:49:27.665Z,18.02
2022-10-11T00:52:06.756Z,13.98
2022-10-11T00:54:40.890Z,16.02
2022-10-11T00:57:14.221Z,14.93
2022-10-11T00:59:46.632Z,15.40
2022-10-11T01:02:15.351Z,14.45
2022-10-11T01:04:43.412Z,16.20
2022-10-11T01:07:11.200Z,17.55
2022-10-11T01:09:38.415Z,11.52
2022-10-11T01:12:13.913Z,15.82
2022-10-11T01:15:09.003Z,16.77
2022-10-11T01:17:52.189Z,13.02
2022-10-11T01:20:40.353Z,16.83
2022-10-11T01:23:44.274Z,14.43
2022-10-11T01:26:39.491Z,15.23
2022-10-11T01:29:12.616Z,14.27
2022-10-11T01:31:58.494Z,14.98
2022-10-11T01:34:39.105Z,14.18
2022-10-11T01:37:19.331Z,15.38
2022-10-11T01:39:51.752Z,16.38
2022-10-11T01:42:20.434Z,16.48
2022-10-11T01:44:50.438Z,14.38
2022-10-11T01:47:22.303Z,14.43
2022-10-11T01:50:27.629Z,13.57
2022-10-11T01:52:57.766Z,14.30
2022-10-11T01:55:35.544Z,16.52
2022-10-11T01:58:28.745Z,17.25
2022-10-11T02:01:27.727Z,12.52
2022-10-11T02:04:26.862Z,13.27
2022-10-11T02:07:02.978Z,21.30
2022-10-11T02:12:30.501Z,13.50
2022-10-11T02:14:58.866Z,14.57
2022-10-11T02:17:33.734Z,15.52
2022-10-11T02:20:05.823Z,13.98
2022-10-11T02:22:38.118Z,14.35
2022-10-11T02:25:11.945Z,16.30
2022-10-11T02:27:42.054Z,13.70
2022-10-11T02:30:11.260Z,13.88
2022-10-11T02:32:40.852Z,13.05
2022-10-11T02:35:08.834Z,14.13
2022-10-11T02:37:53.809Z,15.88
2022-10-11T02:40:33.437Z,18.55
2022-10-11T02:43:23.786Z,15.38
2022-10-11T02:45:55.856Z,13.75
2022-10-11T02:48:24.990Z,14.38
2022-10-11T02:50:54.651Z,14.00
2022-10-11T02:53:23.136Z,13.25
2022-10-11T02:55:52.577Z,13.07
2022-10-11T02:58:20.223Z,15.40
2022-10-11T03:00:48.137Z,12.45
2022-10-11T03:03:15.398Z,17.38
2022-10-11T03:05:43.521Z,13.70
2022-10-11T03:08:17.107Z,15.23
2022-10-11T03:10:44.447Z,12.68
2022-10-11T03:13:15.991Z,15.50
2022-10-11T03:16:02.265Z,16.65
2022-10-11T03:18:31.443Z,13.73
2022-10-11T03:20:58.724Z,14.60
2022-10-11T03:23:31.975Z,14.90
2022-10-11T03:25:59.432Z,14.52
2022-10-11T03:28:28.913Z,13.75
2022-10-11T03:30:56.362Z,14.65
2022-10-11T03:33:23.773Z,14.27
2022-10-11T03:35:51.024Z,14.95
2022-10-11T03:38:22.850Z,12.57
2022-10-11T03:40:50.406Z,12.43
2022-10-11T03:43:17.889Z,15.38
2022-10-11T03:45:45.165Z,13.40
2022-10-11T03:48:12.620Z,16.27
2022-10-11T03:50:42.374Z,14.40
2022-10-11T03:53:11.644Z,16.00
2022-10-11T03:55:42.401Z,14.80
2022-10-11T03:58:09.715Z,15.70
2022-10-11T04:00:37.318Z,16.25
2022-10-11T04:03:04.671Z,13.48
2022-10-11T04:05:32.278Z,14.68
2022-10-11T04:07:59.532Z,16.05
2022-10-11T04:10:34.320Z,12.25
2022-10-11T04:13:01.803Z,13.65
2022-10-11T04:15:31.675Z,15.60
2022-10-11T04:17:58.965Z,12.98
2022-10-11T04:20:26.227Z,14.45
2022-10-11T04:22:53.781Z,16.13
2022-10-11T04:25:23.160Z,14.05
2022-10-11T04:27:50.733Z,12.68
2022-10-11T04:30:18.848Z,14.45
2022-10-11T04:32:46.212Z,12.38
2022-10-11T04:35:15.918Z,12.20
2022-10-11T04:37:43.162Z,12.13
2022-10-11T04:40:11.260Z,12.27
2022-10-11T04:42:38.493Z,17.08
2022-10-11T04:45:06.414Z,15.30
2022-10-11T04:47:34.006Z,15.65
2022-10-11T04:50:01.224Z,14.05
2022-10-11T04:52:29.121Z,13.88
2022-10-11T04:54:57.811Z,15.85
2022-10-11T04:57:25.036Z,13.52
2022-10-11T04:59:52.750Z,14.07
2022-10-11T05:02:22.599Z,16.02
2022-10-11T05:04:49.886Z,15.57
2022-10-11T05:07:17.103Z,16.48
2022-10-11T05:09:44.335Z,16.75
2022-10-11T05:12:11.687Z,14.55
2022-10-11T05:14:39.237Z,16.95
2022-10-11T05:17:07.861Z,16.25
2022-10-11T05:19:35.102Z,22.35
2022-10-11T05:22:02.292Z,14.88
2022-10-11T05:24:30.030Z,16.80
2022-10-11T05:27:00.974Z,16.38
2022-10-11T05:29:30.584Z,15.07
2022-10-11T05:31:57.889Z,15.05
2022-10-11T05:34:25.196Z,13.70
2022-10-11T05:36:52.423Z,14.82
2022-10-11T05:39:19.657Z,15.40
2022-10-11T05:41:47.367Z,13.93
2022-10-11T05:44:14.809Z,14.70
2022-10-11T05:46:42.103Z,14.88
2022-10-11T05:49:09.382Z,14.25
2022-10-11T05:51:36.620Z,13.27
2022-10-11T05:54:03.870Z,15.55
2022-10-11T05:56:31.071Z,13.38
2022-10-11T05:59:02.217Z,18.48
2022-10-11T06:01:29.893Z,12.82
2022-10-11T06:03:57.240Z,15.50
2022-10-11T06:06:49.806Z,16.02
2022-10-11T06:09:17.034Z,16.00
2022-10-11T06:11:45.385Z,12.60
2022-10-11T06:14:12.782Z,13.05
2022-10-11T06:16:42.294Z,14.15
2022-10-11T06:19:09.473Z,12.27
2022-10-11T06:25:06.378Z,12.88
2022-10-11T06:27:33.577Z,15.98
2022-10-11T06:30:01.688Z,14.90
2022-10-11T06:32:29.272Z,13.57
2022-10-11T06:34:56.537Z,17.42
2022-10-11T06:37:23.721Z,13.38
2022-10-11T06:39:50.931Z,12.68
2022-10-11T06:42:20.627Z,12.82
2022-10-11T06:44:55.089Z,20.40
2022-10-11T06:47:22.844Z,15.80
2022-10-11T06:49:50.746Z,15.05
2022-10-11T06:52:18.157Z,13.52
2022-10-11T06:54:45.653Z,12.65
2022-10-11T06:57:13.052Z,12.82
2022-10-11T06:59:40.349Z,13.32
2022-10-11T07:02:08.671Z,14.40
2022-10-11T07:04:36.361Z,14.43
2022-10-11T07:07:04.011Z,14.93
2022-10-11T07:09:31.588Z,13.35
2022-10-11T07:11:58.789Z,17.38
2022-10-11T07:14:25.980Z,16.13
2022-10-11T07:17:43.507Z,20.98
2022-10-11T07:20:11.789Z,17.42
2022-10-11T07:22:42.122Z,19.63
2022-10-11T07:25:09.570Z,19.13
2022-10-11T07:27:39.235Z,15.95
2022-10-11T07:30:07.266Z,16.55
2022-10-11T07:32:36.696Z,19.77
2022-10-11T07:35:04.281Z,16.05
2022-10-11T07:37:33.073Z,17.88
2022-10-11T07:40:00.919Z,20.45
2022-10-11T07:42:28.263Z,17.00
2022-10-11T07:44:55.786Z,19.77
2022-10-11T07:47:25.464Z,19.88
2022-10-11T07:50:12.557Z,15.90
2022-10-11T07:52:40.245Z,13.93
2022-10-11T07:55:08.065Z,17.98
2022-10-11T07:57:35.324Z,16.27
2022-10-11T08:01:09.939Z,19.83
2022-10-11T08:03:21.080Z,15.38
2022-10-11T08:06:21.676Z,16.20
2022-10-11T08:08:49.613Z,18.30
2022-10-11T08:11:29.143Z,14.48
2022-10-11T08:14:06.086Z,16.25
2022-10-11T08:16:57.253Z,14.68
2022-10-11T08:19:24.811Z,18.27
2022-10-11T08:21:53.642Z,16.95
2022-10-11T08:24:31.067Z,17.83
2022-10-11T08:27:06.652Z,15.75
2022-10-11T08:29:34.045Z,17.40
2022-10-11T08:32:03.485Z,19.52
2022-10-11T08:34:32.251Z,14.48
2022-10-11T08:37:30.482Z,24.33
2022-10-11T08:42:55.178Z,20.42
2022-10-11T08:45:41.193Z,24.48
2022-10-11T08:50:49.159Z,16.40
2022-10-11T08:53:26.882Z,14.43
2022-10-11T08:55:55.421Z,21.20
2022-10-11T08:58:39.094Z,10.45
2022-10-11T09:01:23.756Z,18.83
2022-10-11T09:07:10.413Z,23.15
2022-10-11T09:10:15.879Z,17.77
2022-10-11T09:13:08.503Z,17.52
2022-10-11T09:15:43.596Z,17.08
2022-10-11T09:18:25.978Z,19.65
2022-10-11T09:21:12.985Z,15.85
2022-10-11T09:24:27.603Z,26.30
2022-10-11T09:26:57.620Z,17.55
2022-10-11T09:30:13.507Z,25.25
2022-10-11T09:33:26.327Z,18.20
2022-10-11T09:35:58.195Z,20.15
2022-10-11T09:38:57.281Z,17.38
2022-10-11T09:41:45.019Z,19.17
2022-10-11T09:44:22.472Z,14.85
2022-10-11T09:46:51.180Z,20.13
2022-10-11T09:49:23.601Z,18.40
2022-10-11T09:51:59.317Z,17.13
2022-10-11T09:54:52.548Z,14.57
2022-10-11T09:57:26.929Z,19.73
2022-10-11T10:00:12.125Z,14.40
2022-10-11T10:02:58.295Z,22.98
2022-10-11T10:05:36.730Z,20.90
2022-10-11T10:08:23.275Z,21.48
2022-10-11T10:11:04.604Z,20.55
2022-10-11T10:13:39.353Z,23.67
2022-10-11T10:16:11.583Z,21.85
2022-10-11T10:18:43.996Z,24.17
2022-10-11T10:21:14.598Z,24.48
2022-10-11T10:23:42.999Z,24.27
2022-10-11T10:26:23.771Z,21.42
2022-10-11T10:29:12.550Z,20.90
2022-10-11T10:34:52.310Z,20.25
2022-10-11T10:37:32.331Z,21.17
2022-10-11T10:40:22.844Z,19.52
2022-10-11T10:42:50.822Z,21.05
2022-10-11T10:45:21.415Z,21.23
2022-10-11T10:47:58.136Z,21.63
2022-10-11T10:50:54.831Z,22.20
2022-10-11T10:56:09.108Z,20.65
2022-10-11T10:58:45.991Z,22.42
2022-10-11T11:01:33.609Z,21.40
2022-10-11T11:04:37.792Z,20.20
2022-10-11T11:07:21.683Z,27.40
2022-10-11T11:10:05.724Z,25.17
2022-10-11T11:12:51.047Z,21.58
2022-10-11T11:15:32.292Z,25.27
2022-10-11T11:18:21.655Z,26.92
2022-10-11T11:20:56.235Z,25.92
2022-10-11T11:23:49.647Z,22.08
2022-10-11T11:26:44.282Z,22.98
2022-10-11T11:29:20.337Z,24.50
2022-10-11T11:34:26.608Z,22.20
2022-10-11T11:37:18.988Z,21.02
2022-10-11T11:39:59.775Z,21.50
2022-10-11T11:42:34.221Z,20.65
2022-10-11T11:45:17.391Z,23.17
2022-10-11T11:47:52.339Z,24.10
2022-10-11T11:50:23.127Z,24.27
2022-10-11T11:52:59.154Z,25.73
2022-10-11T11:55:37.526Z,25.02
2022-10-11T11:58:25.415Z,21.50
2022-10-11T12:00:58.235Z,23.73
2022-10-11T12:03:41.545Z,24.50
2022-10-11T12:06:12.239Z,26.80
2022-10-11T12:08:44.653Z,25.08
2022-10-11T12:11:29.515Z,29.30
2022-10-11T12:14:03.691Z,22.75
2022-10-11T12:16:31.263Z,23.50
2022-10-11T12:19:03.652Z,26.00
2022-10-11T12:21:32.628Z,23.77
2022-10-11T12:24:10.222Z,24.10
2022-10-11T12:26:47.042Z,24.42
2022-10-11T12:29:17.243Z,24.60
2022-10-11T12:32:04.418Z,23.23
2022-10-11T12:34:34.326Z,21.23
2022-10-11T12:37:22.316Z,29.83
2022-10-11T12:39:57.438Z,28.10
2022-10-11T12:42:34.942Z,27.80
2022-10-11T12:45:14.537Z,19.10
2022-10-11T12:47:54.062Z,26.23
2022-10-11T12:50:45.562Z,24.30
2022-10-11T12:53:31.132Z,24.35
2022-10-11T12:56:09.000Z,27.83
2022-10-11T12:58:47.576Z,20.63
2022-10-11T13:01:18.806Z,22.88
2022-10-11T13:04:08.234Z,22.13
2022-10-11T13:06:50.853Z,18.55
2022-10-11T13:09:31.591Z,20.40
2022-10-11T13:12:07.804Z,23.98
2022-10-11T13:14:40.768Z,18.38
2022-10-11T13:17:19.720Z,19.58
2022-10-11T13:19:58.666Z,20.05
2022-10-11T13:22:48.479Z,25.80
2022-10-11T13:25:23.487Z,19.45
2022-10-11T13:27:54.432Z,17.60
2022-10-11T13:30:34.389Z,19.80
2022-10-11T13:33:05.760Z,19.25
2022-10-11T13:35:36.262Z,18.75
2022-10-11T13:38:09.666Z,20.90
2022-10-11T13:40:38.396Z,20.55
2022-10-11T13:43:06.150Z,20.10
2022-10-11T13:45:36.794Z,22.55
2022-10-11T13:48:04.906Z,19.90
2022-10-11T13:50:37.030Z,15.23
2022-10-11T13:53:26.414Z,17.10
2022-10-11T13:56:06.375Z,17.10
2022-10-11T13:58:40.428Z,15.57
2022-10-11T14:01:23.136Z,20.38
2022-10-11T14:04:07.076Z,16.02
2022-10-11T14:06:46.391Z,20.75
2022-10-11T14:09:39.511Z,16.02
2022-10-11T14:12:28.741Z,17.75
2022-10-11T14:14:57.341Z,19.85
2022-10-11T14:17:44.710Z,17.75
2022-10-11T14:20:21.722Z,23.30
2022-10-11T14:22:54.453Z,18.63
2022-10-11T14:25:22.099Z,19.00
2022-10-11T14:27:50.991Z,18.70
2022-10-11T14:30:26.143Z,22.42
2022-10-11T14:32:56.994Z,18.48
2022-10-11T14:35:30.681Z,20.65
2022-10-11T14:37:58.782Z,19.08
2022-10-11T14:40:28.968Z,21.73
2022-10-11T14:42:56.884Z,17.42
2022-10-11T14:45:24.439Z,19.63
2022-10-11T14:47:55.576Z,18.33
2022-10-11T14:50:26.016Z,18.40
2022-10-11T14:52:56.368Z,21.73
2022-10-11T14:55:26.545Z,17.27
2022-10-11T14:57:53.910Z,18.33
2022-10-11T15:00:25.123Z,17.75
2022-10-11T15:02:53.588Z,18.23
2022-10-11T15:05:24.684Z,18.23
2022-10-11T15:07:51.994Z,23.00
2022-10-11T15:10:57.982Z,18.40
2022-10-11T15:13:25.334Z,21.67
2022-10-11T15:15:52.562Z,16.52
2022-10-11T15:18:21.134Z,16.83
2022-10-11T15:20:51.995Z,16.10
2022-10-11T15:23:19.809Z,16.67
2022-10-11T15:25:47.392Z,21.05
2022-10-11T15:28:33.496Z,17.50
2022-10-11T15:31:04.008Z,17.42
2022-10-11T15:33:31.304Z,16.05
2022-10-11T15:36:01.330Z,18.90
2022-10-11T15:38:29.168Z,14.25
2022-10-11T15:40:59.318Z,21.35
2022-10-11T15:43:29.831Z,16.63
2022-10-11T15:46:27.138Z,15.63
2022-10-11T15:49:12.921Z,14.52
2022-10-11T15:51:49.127Z,14.88
2022-10-11T15:54:16.468Z,14.52
2022-10-11T15:56:46.135Z,17.45
2022-10-11T15:59:13.561Z,15.88
2022-10-11T16:01:40.918Z,15.02
2022-10-11T16:04:09.054Z,13.00
2022-10-11T16:06:36.393Z,15.93
2022-10-11T16:09:04.051Z,14.30
2022-10-11T16:11:31.320Z,14.70
2022-10-11T16:13:58.868Z,11.98
2022-10-11T16:16:26.086Z,14.02
2022-10-11T16:18:53.966Z,13.82
2022-10-11T16:21:23.526Z,23.77
2022-10-11T16:23:50.797Z,12.40
2022-10-11T16:26:18.050Z,10.98
2022-10-11T16:28:56.549Z,15.38
2022-10-11T16:31:27.806Z,14.63
2022-10-11T16:33:55.184Z,18.88
2022-10-11T16:36:35.584Z,17.13
2022-10-11T16:39:36.484Z,13.25
2022-10-11T16:42:06.174Z,13.15
2022-10-11T16:45:02.218Z,11.38
2022-10-11T16:47:28.557Z,10.82
2022-10-11T16:50:29.177Z,14.27
2022-10-11T16:52:57.650Z,11.30
2022-10-11T16:56:08.120Z,11.80
2022-10-11T16:58:36.797Z,13.40
2022-10-11T17:01:09.136Z,10.85
2022-10-11T17:03:36.894Z,12.10
2022-10-11T17:06:56.376Z,8.40
2022-10-11T17:09:23.957Z,9.48
2022-10-11T17:11:57.047Z,11.63
2022-10-11T17:14:24.238Z,13.43
2022-10-11T17:16:57.817Z,11.70
2022-10-11T17:19:33.968Z,10.15
2022-10-11T17:22:01.604Z,10.50
2022-10-11T17:24:28.913Z,9.63
2022-10-11T17:26:56.153Z,13.23
2022-10-11T17:29:24.244Z,13.00
2022-10-11T17:31:52.307Z,9.45
2022-10-11T17:34:19.701Z,15.60
2022-10-11T17:36:47.265Z,10.88
2022-10-11T17:39:17.698Z,10.75
2022-10-11T17:41:45.365Z,10.77
2022-10-11T17:44:13.649Z,10.73
2022-10-11T17:46:44.572Z,9.88
2022-10-11T17:49:17.172Z,10.05
2022-10-11T17:51:44.465Z,11.20
2022-10-11T17:54:37.204Z,9.65
2022-10-11T17:57:07.661Z,11.82
2022-10-11T17:59:35.458Z,10.57
2022-10-11T18:02:09.824Z,12.07
2022-10-11T18:04:37.553Z,15.52
2022-10-11T18:07:07.973Z,11.75
2022-10-11T18:09:37.970Z,8.23
2022-10-11T18:12:05.277Z,9.63
2022-10-11T18:14:32.477Z,11.25
2022-10-11T18:16:59.742Z,8.45
2022-10-11T18:19:27.282Z,10.02
2022-10-11T18:21:54.646Z,8.63
2022-10-11T18:24:21.938Z,9.15
2022-10-11T18:26:49.659Z,11.20
2022-10-11T18:29:17.030Z,13.38
2022-10-11T18:31:44.600Z,15.80
2022-10-11T18:34:13.786Z,20.23
2022-10-11T18:36:41.200Z,17.38
2022-10-11T18:39:21.297Z,18.40
2022-10-11T18:41:48.732Z,14.65
2022-10-11T18:44:39.544Z,19.17
2022-10-11T18:47:04.454Z,15.70
2022-10-11T18:49:31.646Z,24.60
2022-10-11T18:51:58.810Z,21.75
2022-10-11T18:54:26.011Z,20.35
2022-10-11T18:56:53.188Z,25.02
2022-10-11T18:59:20.734Z,16.85
2022-10-11T19:01:51.872Z,20.27
2022-10-11T19:04:24.384Z,18.65
2022-10-11T19:06:53.253Z,18.20
2022-10-11T19:09:26.044Z,19.65
2022-10-11T19:11:55.350Z,21.90
2022-10-11T19:14:25.795Z,21.25
2022-10-11T19:16:53.729Z,20.38
2022-10-11T19:19:24.104Z,18.65
2022-10-11T19:21:52.072Z,17.77
2022-10-11T19:24:22.022Z,17.42
2022-10-11T19:26:49.632Z,18.15
2022-10-11T19:29:19.649Z,19.25
2022-10-11T19:31:49.663Z,21.70
2022-10-11T19:34:42.625Z,19.20
2022-10-11T19:37:13.319Z,21.98
2022-10-11T19:39:40.662Z,19.77
2022-10-11T19:42:07.982Z,17.00
2022-10-11T19:44:39.567Z,22.48
2022-10-11T19:47:08.495Z,21.15
2022-10-11T19:49:36.008Z,23.17
2022-10-11T19:52:03.357Z,21.17
2022-10-11T19:54:31.863Z,22.17
2022-10-11T19:56:59.127Z,18.33
2022-10-11T19:59:28.002Z,24.27
2022-10-11T20:01:55.394Z,23.33
2022-10-11T20:04:47.504Z,19.52
2022-10-11T20:07:10.651Z,19.02
2022-10-11T20:09:39.147Z,18.55
2022-10-11T20:12:16.664Z,15.52
2022-10-11T20:14:46.538Z,14.07
2022-10-11T20:17:13.919Z,18.20
2022-10-11T20:19:41.226Z,19.35
2022-10-11T20:22:11.793Z,18.85
2022-10-11T20:24:39.002Z,17.58
2022-10-11T20:27:07.181Z,18.15
2022-10-11T20:29:34.999Z,22.77
2022-10-11T20:32:02.573Z,23.98
2022-10-11T20:34:30.698Z,20.75
2022-10-11T20:36:58.405Z,19.15
2022-10-11T20:39:26.154Z,20.73
2022-10-11T20:42:04.240Z,16.52
2022-10-11T20:44:31.626Z,17.58
2022-10-11T20:47:03.743Z,19.08
2022-10-11T20:49:50.234Z,16.58
2022-10-11T20:52:17.715Z,17.58
2022-10-11T20:54:45.009Z,18.40
2022-10-11T20:57:12.785Z,20.73
2022-10-11T20:59:40.136Z,19.05
2022-10-11T21:02:09.754Z,16.85
2022-10-11T21:04:37.048Z,18.92
2022-10-11T21:07:04.281Z,16.33
2022-10-11T21:09:31.711Z,21.17
2022-10-11T21:12:02.168Z,18.75
2022-10-11T21:14:29.646Z,17.83
2022-10-11T21:17:00.564Z,18.35
2022-10-11T21:19:30.334Z,20.55
2022-10-11T21:21:57.530Z,21.17
2022-10-11T21:24:24.764Z,15.95
2022-10-11T21:26:55.810Z,16.77
2022-10-11T21:29:25.629Z,20.92
2022-10-11T21:31:52.952Z,18.27
2022-10-11T21:34:20.523Z,19.27
2022-10-11T21:36:51.081Z,19.40
2022-10-11T21:39:18.349Z,21.88
2022-10-11T21:41:45.549Z,20.88
2022-10-11T21:44:13.270Z,21.58
2022-10-11T21:47:06.062Z,19.17
2022-10-11T21:49:36.938Z,21.08
2022-10-11T21:52:04.607Z,18.75
2022-10-11T21:54:32.058Z,22.23
2022-10-11T21:57:35.399Z,19.20
2022-10-11T22:00:05.701Z,20.70
2022-10-11T22:02:40.530Z,18.30
2022-10-11T22:05:08.067Z,17.25
2022-10-11T22:08:56.955Z,17.75
2022-10-11T22:11:25.538Z,19.40
2022-10-11T22:13:52.920Z,22.00
2022-10-11T22:16:41.340Z,20.52
2022-10-11T22:19:08.565Z,21.25
2022-10-11T22:21:35.889Z,21.02
2022-10-11T22:24:03.536Z,17.13
2022-10-11T22:26:34.261Z,17.35
2022-10-11T22:29:02.055Z,18.42
2022-10-11T22:31:30.008Z,17.73
2022-10-11T22:33:59.262Z,14.93
2022-10-11T22:36:27.432Z,19.30
2022-10-11T22:38:54.725Z,17.98
2022-10-11T22:41:22.229Z,16.17
2022-10-11T22:43:50.049Z,18.98
2022-10-11T22:46:17.873Z,19.15
2022-10-11T22:48:45.018Z,16.50
2022-10-11T22:51:12.300Z,14.20
2022-10-11T22:53:39.792Z,16.30
2022-10-11T22:56:08.796Z,16.02
2022-10-11T22:58:38.500Z,22.98
2022-10-11T23:01:13.744Z,17.85
2022-10-11T23:03:47.145Z,17.17
2022-10-11T23:06:14.432Z,15.05
2022-10-11T23:08:41.850Z,17.50
2022-10-11T23:11:11.840Z,17.38
2022-10-11T23:13:39.143Z,16.20
2022-10-11T23:16:11.785Z,17.17
2022-10-11T23:18:39.115Z,15.90
2022-10-11T23:21:06.977Z,17.70
2022-10-11T23:23:34.681Z,17.00
2022-10-11T23:26:11.566Z,13.63
2022-10-11T23:28:39.914Z,14.77
2022-10-11T23:31:09.724Z,18.95
2022-10-11T23:33:37.200Z,14.13
2022-10-11T23:36:05.063Z,15.20
2022-10-11T23:38:32.759Z,14.40
2022-10-11T23:41:00.090Z,14.15
2022-10-11T23:43:29.550Z,16.10
2022-10-11T23:45:57.272Z,16.58
2022-10-11T23:48:25.233Z,16.38
2022-10-11T23:50:54.611Z,14.48
2022-10-11T23:53:21.838Z,15.45
2022-10-11T23:55:49.038Z,15.65
2022-10-11T23:58:16.266Z,15.45
